createdAt,value
2024-03-02T00:01:04.000Z,33.063
2024-03-02T00:02:20.000Z,42.258
2024-03-02T00:03:36.000Z,44.063
2024-03-02T00:04:53.000Z,21.152
2024-03-02T00:06:08.000Z,38.337
2024-03-02T00:07:23.000Z,24.312
2024-03-02T00:08:39.000Z,29.333
2024-03-02T00:09:54.000Z,17.441
2024-03-02T00:11:09.000Z,34.21
2024-03-02T00:12:25.000Z,27.79
2024-03-02T00:13:42.000Z,55.033
2024-03-02T00:14:58.000Z,40.049
2024-03-02T00:16:13.000Z,37.624
2024-03-02T00:17:29.000Z,31.702
2024-03-02T00:18:44.000Z,18.975
2024-03-02T00:19:59.000Z,58.955
2024-03-02T00:21:14.000Z,44.628
2024-03-02T00:22:31.000Z,25.489
2024-03-02T00:23:48.000Z,26.8
2024-03-02T00:25:03.000Z,39.488
2024-03-02T00:26:18.000Z,45.51
2024-03-02T00:27:33.000Z,20.548
2024-03-02T00:28:49.000Z,26.731
2024-03-02T00:30:05.000Z,25.754
2024-03-02T00:31:22.000Z,31.873
2024-03-02T00:32:38.000Z,30.185
2024-03-02T00:33:53.000Z,24.654
2024-03-02T00:35:08.000Z,43.655
2024-03-02T00:36:24.000Z,19.611
2024-03-02T00:37:40.000Z,32.064
2024-03-02T00:38:56.000Z,24.074
2024-03-02T00:40:12.000Z,28.523
2024-03-02T00:41:28.000Z,31.071
2024-03-02T00:42:43.000Z,12.579
2024-03-02T00:43:58.000Z,35.791
2024-03-02T00:45:13.000Z,24.419
2024-03-02T00:46:29.000Z,24.075
2024-03-02T00:47:46.000Z,21.331
2024-03-02T00:49:03.000Z,32.443
2024-03-02T00:50:19.000Z,31.529
2024-03-02T00:51:34.000Z,27.126
2024-03-02T00:52:49.000Z,28.407
2024-03-02T00:54:05.000Z,29.803
2024-03-02T00:55:20.000Z,23.264
2024-03-02T00:56:36.000Z,87.675
2024-03-02T00:57:52.000Z,35.383
2024-03-02T00:59:08.000Z,34.709
2024-03-02T01:00:24.000Z,34.042
2024-03-02T01:01:39.000Z,33.614
2024-03-02T01:02:54.000Z,26.386
2024-03-02T01:04:09.000Z,17.763
2024-03-02T01:05:25.000Z,25.559
2024-03-02T01:06:42.000Z,46.057
2024-03-02T01:07:59.000Z,29.544
2024-03-02T01:09:14.000Z,21.874
2024-03-02T01:10:29.000Z,60.273
2024-03-02T01:11:45.000Z,29.501
2024-03-02T01:13:00.000Z,32.02
2024-03-02T01:14:16.000Z,26.551
2024-03-02T01:15:32.000Z,35.648
2024-03-02T01:16:49.000Z,23.416
2024-03-02T01:18:05.000Z,16.074
2024-03-02T01:19:20.000Z,18.602
2024-03-02T01:20:35.000Z,30.484
2024-03-02T01:21:50.000Z,54.569
2024-03-02T01:23:06.000Z,20.811
2024-03-02T01:24:22.000Z,38.159
2024-03-02T01:25:39.000Z,34.74
2024-03-02T01:26:54.000Z,38.775
2024-03-02T01:28:10.000Z,33.378
2024-03-02T01:29:25.000Z,16.367
2024-03-02T01:30:40.000Z,27.541
2024-03-02T01:31:56.000Z,25.159
2024-03-02T01:33:11.000Z,19.196
2024-03-02T01:34:27.000Z,32.465
2024-03-02T01:35:44.000Z,33.075
2024-03-02T01:36:59.000Z,32.621
2024-03-02T01:38:14.000Z,30.249
2024-03-02T01:39:30.000Z,48.98
2024-03-02T01:40:45.000Z,9.085
2024-03-02T01:42:00.000Z,20.224
2024-03-02T01:43:17.000Z,34.937
2024-03-02T01:44:33.000Z,29.544
2024-03-02T01:45:50.000Z,24.742
2024-03-02T01:47:05.000Z,27.655
2024-03-02T01:48:20.000Z,15.375
2024-03-02T01:49:35.000Z,23.089
2024-03-02T01:50:51.000Z,28.308
2024-03-02T01:52:07.000Z,22.2
2024-03-02T01:53:23.000Z,42.621
2024-03-02T01:54:39.000Z,21.453
2024-03-02T01:55:56.000Z,30.11
2024-03-02T01:57:12.000Z,44.516
2024-03-02T01:58:27.000Z,54.397
2024-03-02T01:59:42.000Z,35.339
2024-03-02T02:00:58.000Z,21.447
2024-03-02T02:02:14.000Z,25.406
2024-03-02T02:03:31.000Z,34.087
2024-03-02T02:04:46.000Z,17.414
2024-03-02T02:06:02.000Z,23.317
2024-03-02T02:07:17.000Z,18.088
2024-03-02T02:08:32.000Z,24.18
2024-03-02T02:09:48.000Z,28.405
2024-03-02T02:11:03.000Z,42.462
2024-03-02T02:12:20.000Z,25.786
2024-03-02T02:13:36.000Z,24.313
2024-03-02T02:14:51.000Z,26.59
2024-03-02T02:16:06.000Z,28.71
2024-03-02T02:17:22.000Z,29.655
2024-03-02T02:18:37.000Z,34.391
2024-03-02T02:19:53.000Z,32.439
2024-03-02T02:21:09.000Z,47.218
2024-03-02T02:22:25.000Z,32.847
2024-03-02T02:23:40.000Z,33.906
2024-03-02T02:24:55.000Z,27.238
2024-03-02T02:26:10.000Z,19.167
2024-03-02T02:27:26.000Z,37.66
2024-03-02T02:28:42.000Z,44.437
2024-03-02T02:29:58.000Z,27.397
2024-03-02T02:31:14.000Z,18.102
2024-03-02T02:32:29.000Z,17.763
2024-03-02T02:33:44.000Z,20.525
2024-03-02T02:35:01.000Z,31.777
2024-03-02T02:36:15.000Z,26.034
2024-03-02T02:37:31.000Z,21.934
2024-03-02T02:38:53.000Z,38.215
2024-03-02T02:40:09.000Z,17.103
2024-03-02T02:41:26.000Z,33.579
2024-03-02T02:42:41.000Z,28.601
2024-03-02T02:43:56.000Z,24.964
2024-03-02T02:45:11.000Z,18.578
2024-03-02T02:46:26.000Z,31.001
2024-03-02T02:47:42.000Z,41.7
2024-03-02T02:48:58.000Z,33.256
2024-03-02T02:50:15.000Z,18.543
2024-03-02T02:51:31.000Z,44.678
2024-03-02T02:52:46.000Z,34.451
2024-03-02T02:54:01.000Z,20.88
2024-03-02T02:55:17.000Z,39.525
2024-03-02T02:56:32.000Z,39.211
2024-03-02T02:57:49.000Z,55.266
2024-03-02T02:59:05.000Z,24.466
2024-03-02T03:00:21.000Z,21.461
2024-03-02T03:01:36.000Z,39.663
2024-03-02T03:02:51.000Z,27.277
2024-03-02T03:04:07.000Z,17.998
2024-03-02T03:05:22.000Z,25.003
2024-03-02T03:06:38.000Z,41.198
2024-03-02T03:07:54.000Z,21.768
2024-03-02T03:09:11.000Z,26.865
2024-03-02T03:10:26.000Z,11.182
2024-03-02T03:11:41.000Z,48.206
2024-03-02T03:12:56.000Z,31.427
2024-03-02T03:14:12.000Z,33.903
2024-03-02T03:15:28.000Z,22.894
2024-03-02T03:16:44.000Z,30.023
2024-03-02T03:18:00.000Z,22.792
2024-03-02T03:19:17.000Z,27.929
2024-03-02T03:20:32.000Z,32.944
2024-03-02T03:21:47.000Z,43.01
2024-03-02T03:23:02.000Z,32.749
2024-03-02T03:24:18.000Z,34.264
2024-03-02T03:25:34.000Z,39.737
2024-03-02T03:26:50.000Z,29.091
2024-03-02T03:28:06.000Z,20.516
2024-03-02T03:29:22.000Z,17.915
2024-03-02T03:30:37.000Z,38.542
2024-03-02T03:31:52.000Z,36.616
2024-03-02T03:33:07.000Z,35.452
2024-03-02T03:34:24.000Z,43.8
2024-03-02T03:35:40.000Z,24.929
2024-03-02T03:36:56.000Z,37.033
2024-03-02T03:38:11.000Z,26.007
2024-03-02T03:39:27.000Z,48.948
2024-03-02T03:40:42.000Z,51.153
2024-03-02T03:41:57.000Z,19.509
2024-03-02T03:43:14.000Z,36.205
2024-03-02T03:44:31.000Z,33.099
2024-03-02T03:45:47.000Z,36.773
2024-03-02T03:47:02.000Z,50.216
2024-03-02T03:48:17.000Z,17.604
2024-03-02T03:49:32.000Z,20.368
2024-03-02T03:50:48.000Z,39.117
2024-03-02T03:52:04.000Z,50.534
2024-03-02T03:53:20.000Z,45.852
2024-03-02T03:54:37.000Z,38.934
2024-03-02T03:55:52.000Z,31.191
2024-03-02T03:57:08.000Z,27.267
2024-03-02T03:58:23.000Z,26.057
2024-03-02T03:59:38.000Z,38.937
2024-03-02T04:00:54.000Z,26.319
2024-03-02T04:02:11.000Z,9.085
2024-03-02T04:03:27.000Z,33.211
2024-03-02T04:04:43.000Z,20.338
2024-03-02T04:05:58.000Z,22.521
2024-03-02T04:07:13.000Z,24.168
2024-03-02T04:08:28.000Z,29.861
2024-03-02T04:09:44.000Z,27.092
2024-03-02T04:11:01.000Z,25.678
2024-03-02T04:12:17.000Z,44.349
2024-03-02T04:13:33.000Z,62.752
2024-03-02T04:14:48.000Z,31.439
2024-03-02T04:16:03.000Z,20.516
2024-03-02T04:17:18.000Z,42.343
2024-03-02T04:18:34.000Z,33.933
2024-03-02T04:19:50.000Z,34.953
2024-03-02T04:21:06.000Z,32.613
2024-03-02T04:22:21.000Z,62.543
2024-03-02T04:23:37.000Z,37.296
2024-03-02T04:24:52.000Z,30.361
2024-03-02T04:26:07.000Z,58.247
2024-03-02T04:27:22.000Z,29.269
2024-03-02T04:28:39.000Z,57.723
2024-03-02T04:29:55.000Z,16.95
2024-03-02T04:31:10.000Z,25.786
2024-03-02T04:32:26.000Z,25.864
2024-03-02T04:33:41.000Z,49.785
2024-03-02T04:34:56.000Z,39.192
2024-03-02T04:36:12.000Z,32.242
2024-03-02T04:37:29.000Z,22.158
2024-03-02T04:38:45.000Z,16.773
2024-03-02T04:40:01.000Z,30.299
2024-03-02T04:41:16.000Z,54.833
2024-03-02T04:42:31.000Z,29.005
2024-03-02T04:43:47.000Z,20.648
2024-03-02T04:45:02.000Z,32.262
2024-03-02T04:46:20.000Z,18.389
2024-03-02T04:47:36.000Z,20.67
2024-03-02T04:48:52.000Z,22.505
2024-03-02T04:50:08.000Z,18.869
2024-03-02T04:51:23.000Z,31.005
2024-03-02T04:52:38.000Z,22.47
2024-03-02T04:53:53.000Z,35.847
2024-03-02T04:55:10.000Z,31.267
2024-03-02T04:56:27.000Z,33.774
2024-03-02T04:57:44.000Z,42.149
2024-03-02T04:58:59.000Z,30.747
2024-03-02T05:00:15.000Z,26.421
2024-03-02T05:01:30.000Z,60.405
2024-03-02T05:02:45.000Z,26.883
2024-03-02T05:04:00.000Z,20.529
2024-03-02T05:05:17.000Z,16.259
2024-03-02T05:06:33.000Z,25.391
2024-03-02T05:07:48.000Z,27.672
2024-03-02T05:09:04.000Z,49.902
2024-03-02T05:10:19.000Z,39.024
2024-03-02T05:11:35.000Z,33.751
2024-03-02T05:12:50.000Z,28.038
2024-03-02T05:14:07.000Z,30.696
2024-03-02T05:15:23.000Z,31.167
2024-03-02T05:16:38.000Z,24.463
2024-03-02T05:17:54.000Z,20.164
2024-03-02T05:19:10.000Z,18.91
2024-03-02T05:20:25.000Z,24.975
2024-03-02T05:21:40.000Z,25.159
2024-03-02T05:22:57.000Z,18.753
2024-03-02T05:24:14.000Z,34.864
2024-03-02T05:25:29.000Z,40.218
2024-03-02T05:26:45.000Z,31.633
2024-03-02T05:28:00.000Z,25.651
2024-03-02T05:29:16.000Z,24.444
2024-03-02T05:30:31.000Z,25.894
2024-03-02T05:31:47.000Z,35.761
2024-03-02T05:33:03.000Z,40.064
2024-03-02T05:34:19.000Z,24.228
2024-03-02T05:35:36.000Z,70.264
2024-03-02T05:36:51.000Z,32.486
2024-03-02T05:38:07.000Z,22.75
2024-03-02T05:39:22.000Z,49.847
2024-03-02T05:40:37.000Z,23.264
2024-03-02T05:41:53.000Z,17.244
2024-03-02T05:43:10.000Z,50.242
2024-03-02T05:44:26.000Z,21.148
2024-03-02T05:45:41.000Z,49.133
2024-03-02T05:46:57.000Z,36.295
2024-03-02T05:48:12.000Z,49.913
2024-03-02T05:49:28.000Z,37.669
2024-03-02T05:50:43.000Z,42.053
2024-03-02T05:51:58.000Z,38.944
2024-03-02T05:53:15.000Z,37.537
2024-03-02T05:54:32.000Z,31.196
2024-03-02T05:55:48.000Z,19.463
2024-03-02T05:57:03.000Z,19.53
2024-03-02T05:58:18.000Z,29.606
2024-03-02T05:59:33.000Z,33.458
2024-03-02T06:00:50.000Z,39.921
2024-03-02T06:02:07.000Z,21.896
2024-03-02T06:03:22.000Z,28.352
2024-03-02T06:04:37.000Z,33.448
2024-03-02T06:05:53.000Z,29.595
2024-03-02T06:07:08.000Z,21.565
2024-03-02T06:08:23.000Z,37.442
2024-03-02T06:09:39.000Z,34.774
2024-03-02T06:10:55.000Z,35.452
2024-03-02T06:12:12.000Z,18.859
2024-03-02T06:13:27.000Z,38.283
2024-03-02T06:14:42.000Z,20.204
2024-03-02T06:15:57.000Z,35.926
2024-03-02T06:17:13.000Z,21.353
2024-03-02T06:18:28.000Z,38.105
2024-03-02T06:19:45.000Z,37.728
2024-03-02T06:21:00.000Z,32.795
2024-03-02T06:22:16.000Z,47.165
2024-03-02T06:23:31.000Z,27.605
2024-03-02T06:24:46.000Z,30.679
2024-03-02T06:26:02.000Z,37.224
2024-03-02T06:27:18.000Z,26.219
2024-03-02T06:28:35.000Z,23.09
2024-03-02T06:29:51.000Z,39.423
2024-03-02T06:31:06.000Z,40.057
2024-03-02T06:32:22.000Z,28.003
2024-03-02T06:33:37.000Z,35.546
2024-03-02T06:34:52.000Z,37.758
2024-03-02T06:36:08.000Z,26.706
2024-03-02T06:37:25.000Z,25.662
2024-03-02T06:38:41.000Z,36.469
2024-03-02T06:39:57.000Z,30.427
2024-03-02T06:41:12.000Z,52.42
2024-03-02T06:42:27.000Z,29.984
2024-03-02T06:43:43.000Z,32.999
2024-03-02T06:44:58.000Z,57.998
2024-03-02T06:46:15.000Z,31.225
2024-03-02T06:47:31.000Z,42.448
2024-03-02T06:48:47.000Z,23.755
2024-03-02T06:50:02.000Z,17.499
2024-03-02T06:51:17.000Z,28.553
2024-03-02T06:52:33.000Z,24.286
2024-03-02T06:53:48.000Z,19.5
2024-03-02T06:55:05.000Z,36.736
2024-03-02T06:56:21.000Z,31.157
2024-03-02T06:57:36.000Z,26.52
2024-03-02T06:58:51.000Z,26.024
2024-03-02T07:00:07.000Z,49.535
2024-03-02T07:01:22.000Z,35.216
2024-03-02T07:02:37.000Z,34.763
2024-03-02T07:03:54.000Z,24.717
2024-03-02T07:05:11.000Z,26.159
2024-03-02T07:06:27.000Z,32.805
2024-03-02T07:07:42.000Z,26.373
2024-03-02T07:08:57.000Z,21.927
2024-03-02T07:10:12.000Z,51.421
2024-03-02T07:11:28.000Z,20.691
2024-03-02T07:12:44.000Z,28.582
2024-03-02T07:14:01.000Z,43.044
2024-03-02T07:15:17.000Z,39.509
2024-03-02T07:16:32.000Z,26.961
2024-03-02T07:17:47.000Z,26.204
2024-03-02T07:19:02.000Z,41.173
2024-03-02T07:20:17.000Z,37.315
2024-03-02T07:21:33.000Z,81.264
2024-03-02T07:22:50.000Z,41.73
2024-03-02T07:24:06.000Z,35.443
2024-03-02T07:25:22.000Z,33.366
2024-03-02T07:26:37.000Z,53.433
2024-03-02T07:27:53.000Z,24.45
2024-03-02T07:29:08.000Z,32.509
2024-03-02T07:30:23.000Z,20.167
2024-03-02T07:31:39.000Z,22.32
2024-03-02T07:32:56.000Z,46.271
2024-03-02T07:34:12.000Z,30.525
2024-03-02T07:35:27.000Z,21.39
2024-03-02T07:36:43.000Z,34.386
2024-03-02T07:37:58.000Z,40.605
2024-03-02T07:39:14.000Z,28.697
2024-03-02T07:40:29.000Z,46.078
2024-03-02T07:41:46.000Z,30.219
2024-03-02T07:43:02.000Z,27.116
2024-03-02T07:44:17.000Z,38.568
2024-03-02T07:45:33.000Z,25.18
2024-03-02T07:46:48.000Z,38.105
2024-03-02T07:48:03.000Z,48.648
2024-03-02T07:49:19.000Z,45.856
2024-03-02T07:50:36.000Z,32.56
2024-03-02T07:51:52.000Z,26.695
2024-03-02T07:53:09.000Z,57.665
2024-03-02T07:54:23.000Z,31.889
2024-03-02T07:55:39.000Z,22.018
2024-03-02T07:56:55.000Z,54.232
2024-03-02T07:58:11.000Z,18.938
2024-03-02T07:59:26.000Z,21.833
2024-03-02T08:00:41.000Z,28.764
2024-03-02T08:01:58.000Z,37.066
2024-03-02T08:03:14.000Z,23.907
2024-03-02T08:04:29.000Z,48.972
2024-03-02T08:05:45.000Z,37.266
2024-03-02T08:07:00.000Z,26.326
2024-03-02T08:08:16.000Z,28.938
2024-03-02T08:09:31.000Z,38.182
2024-03-02T08:10:47.000Z,27.226
2024-03-02T08:12:04.000Z,30.804
2024-03-02T08:13:20.000Z,29.606
2024-03-02T08:14:36.000Z,16.871
2024-03-02T08:15:51.000Z,21.508
2024-03-02T08:17:07.000Z,20.327
2024-03-02T08:18:22.000Z,38.187
2024-03-02T08:19:38.000Z,33.541
2024-03-02T08:20:54.000Z,18.859
2024-03-02T08:22:11.000Z,34.134
2024-03-02T08:23:26.000Z,65.245
2024-03-02T08:24:41.000Z,36.375
2024-03-02T08:25:58.000Z,34.639
2024-03-02T08:27:13.000Z,29.655
2024-03-02T08:28:28.000Z,26.617
2024-03-02T08:29:44.000Z,33.314
2024-03-02T08:31:00.000Z,22.715
2024-03-02T08:32:17.000Z,25.645
2024-03-02T08:33:33.000Z,66.845
2024-03-02T08:34:48.000Z,59.528
2024-03-02T08:36:03.000Z,20.516
2024-03-02T08:37:19.000Z,22.093
2024-03-02T08:38:35.000Z,22.789
2024-03-02T08:39:50.000Z,21.972
2024-03-02T08:41:07.000Z,26.557
2024-03-02T08:42:23.000Z,134.273
2024-03-02T08:43:38.000Z,29.091
2024-03-02T08:44:54.000Z,46.011
2024-03-02T08:46:09.000Z,36.701
2024-03-02T08:47:24.000Z,26.513
2024-03-02T08:48:40.000Z,18.922
2024-03-02T08:49:57.000Z,14.676
2024-03-02T08:51:13.000Z,23.236
2024-03-02T08:52:28.000Z,37.911
2024-03-02T08:53:43.000Z,44.635
2024-03-02T08:54:59.000Z,38.481
2024-03-02T08:56:14.000Z,32.708
2024-03-02T08:57:30.000Z,26.164
2024-03-02T08:58:46.000Z,18.923
2024-03-02T09:00:02.000Z,42.263
2024-03-02T09:01:18.000Z,27.607
2024-03-02T09:02:34.000Z,27.036
2024-03-02T09:03:48.000Z,24.907
2024-03-02T09:05:04.000Z,16.074
2024-03-02T09:06:19.000Z,26.023
2024-03-02T09:07:36.000Z,39.387
2024-03-02T09:08:52.000Z,25.645
2024-03-02T09:10:07.000Z,22.968
2024-03-02T09:11:22.000Z,36.455
2024-03-02T09:12:38.000Z,29.818
2024-03-02T09:13:53.000Z,30.052
2024-03-02T09:15:09.000Z,17.799
2024-03-02T09:16:25.000Z,35.461
2024-03-02T09:17:41.000Z,32.139
2024-03-02T09:18:56.000Z,23.171
2024-03-02T09:20:12.000Z,41.751
2024-03-02T09:21:27.000Z,22.225
2024-03-02T09:22:42.000Z,40.655
2024-03-02T09:23:58.000Z,32.558
2024-03-02T09:25:15.000Z,24.981
2024-03-02T09:26:31.000Z,20.174
2024-03-02T09:27:46.000Z,35.245
2024-03-02T09:29:02.000Z,26.8
2024-03-02T09:30:17.000Z,21.421
2024-03-02T09:31:32.000Z,35.768
2024-03-02T09:32:48.000Z,17.135
2024-03-02T09:34:04.000Z,22.1
2024-03-02T09:35:21.000Z,21.447
2024-03-02T09:36:37.000Z,18.594
2024-03-02T09:37:52.000Z,11.182
2024-03-02T09:39:07.000Z,34.709
2024-03-02T09:40:22.000Z,29.172
2024-03-02T09:41:38.000Z,28.835
2024-03-02T09:42:54.000Z,29.366
2024-03-02T09:44:11.000Z,24.551
2024-03-02T09:45:27.000Z,34.976
2024-03-02T09:46:42.000Z,28.077
2024-03-02T09:47:57.000Z,28.911
2024-03-02T09:49:13.000Z,17.119
2024-03-02T09:50:28.000Z,25.38
2024-03-02T09:51:45.000Z,29.636
2024-03-02T09:53:01.000Z,27.108
2024-03-02T09:54:17.000Z,20.204
2024-03-02T09:55:32.000Z,23.729
2024-03-02T09:56:47.000Z,38.385
2024-03-02T09:58:02.000Z,26.236
2024-03-02T09:59:17.000Z,56.801
2024-03-02T10:00:34.000Z,9.085
2024-03-02T10:01:49.000Z,36.616
2024-03-02T10:03:05.000Z,29.148
2024-03-02T10:04:20.000Z,23.86
2024-03-02T10:05:36.000Z,34.994
2024-03-02T10:06:51.000Z,40.209
2024-03-02T10:08:06.000Z,24.414
2024-03-02T10:09:23.000Z,27.607
2024-03-02T10:10:39.000Z,23.184
2024-03-02T10:11:55.000Z,17.285
2024-03-02T10:13:11.000Z,27.378
2024-03-02T10:14:26.000Z,37.2
2024-03-02T10:15:41.000Z,16.275
2024-03-02T10:16:56.000Z,28.518
2024-03-02T10:18:13.000Z,29.561
2024-03-02T10:19:29.000Z,25.167
2024-03-02T10:20:46.000Z,29.309
2024-03-02T10:22:01.000Z,42.583
2024-03-02T10:23:17.000Z,27.317
2024-03-02T10:24:32.000Z,18.423
2024-03-02T10:25:47.000Z,32.842
2024-03-02T10:27:02.000Z,31.844
2024-03-02T10:28:19.000Z,22.477
2024-03-02T10:29:35.000Z,33.233
2024-03-02T10:30:51.000Z,21.182
2024-03-02T10:32:06.000Z,26.238
2024-03-02T10:33:21.000Z,20.818
2024-03-02T10:34:36.000Z,25.587
2024-03-02T10:35:52.000Z,24.07
2024-03-02T10:37:08.000Z,30.328
2024-03-02T10:38:25.000Z,20.531
2024-03-02T10:39:40.000Z,29.017
2024-03-02T10:40:56.000Z,23.075
2024-03-02T10:42:11.000Z,23.949
2024-03-02T10:43:26.000Z,26.394
2024-03-02T10:44:42.000Z,33.176
2024-03-02T10:45:58.000Z,26.764
2024-03-02T10:47:15.000Z,18.325
2024-03-02T10:48:31.000Z,27.154
2024-03-02T10:49:46.000Z,28.607
2024-03-02T10:51:01.000Z,36.004
2024-03-02T10:52:17.000Z,28.595
2024-03-02T10:53:32.000Z,24.551
2024-03-02T10:54:48.000Z,20.891
2024-03-02T10:56:04.000Z,32.911
2024-03-02T10:57:20.000Z,11.182
2024-03-02T10:58:36.000Z,25.858
2024-03-02T10:59:51.000Z,40.534
2024-03-02T11:01:07.000Z,27.256
2024-03-02T11:02:22.000Z,39.136
2024-03-02T11:03:37.000Z,53.113
2024-03-02T11:04:53.000Z,71.983
2024-03-02T11:06:10.000Z,85.261
2024-03-02T11:07:27.000Z,65.693
2024-03-02T11:08:43.000Z,52.415
2024-03-02T11:09:58.000Z,18.17
2024-03-02T11:11:14.000Z,29.559
2024-03-02T11:12:29.000Z,58.628
2024-03-02T11:13:44.000Z,22.477
2024-03-02T11:15:01.000Z,26.295
2024-03-02T11:16:17.000Z,17.927
2024-03-02T11:17:33.000Z,18.378
2024-03-02T11:18:49.000Z,26.875
2024-03-02T11:20:04.000Z,22.477
2024-03-02T11:21:19.000Z,23.245
2024-03-02T11:22:34.000Z,41.844
2024-03-02T11:23:51.000Z,36.787
2024-03-02T11:25:07.000Z,27.026
2024-03-02T11:26:23.000Z,46.106
2024-03-02T11:27:39.000Z,28.407
2024-03-02T11:28:55.000Z,17.998
2024-03-02T11:30:10.000Z,33.703
2024-03-02T11:31:25.000Z,28.613
2024-03-02T11:32:41.000Z,20.204
2024-03-02T11:33:58.000Z,19.463
2024-03-02T11:35:14.000Z,21.577
2024-03-02T11:36:30.000Z,59.341
2024-03-02T11:37:46.000Z,20.998
2024-03-02T11:39:02.000Z,29.559
2024-03-02T11:40:17.000Z,11.881
2024-03-02T11:41:32.000Z,39.136
2024-03-02T11:42:48.000Z,97.142
2024-03-02T11:44:04.000Z,100.636
2024-03-02T11:45:20.000Z,101.335
2024-03-02T11:46:36.000Z,194.283
2024-03-02T11:47:51.000Z,264.868
2024-03-02T11:49:07.000Z,240.408
2024-03-02T11:50:22.000Z,199.175
2024-03-02T11:51:37.000Z,175.414
2024-03-02T11:52:53.000Z,186.596
2024-03-02T11:54:10.000Z,167.727
2024-03-02T11:55:25.000Z,142.568
2024-03-02T11:56:41.000Z,163.533
2024-03-02T11:57:56.000Z,150.954
2024-03-02T11:59:12.000Z,209.658
2024-03-02T12:00:27.000Z,280.243
2024-03-02T12:01:43.000Z,415.123
2024-03-02T12:03:00.000Z,526.242
2024-03-02T12:04:15.000Z,524.844
2024-03-02T12:05:31.000Z,455.657
2024-03-02T12:06:46.000Z,401.845
2024-03-02T12:08:01.000Z,345.237
2024-03-02T12:09:16.000Z,194.982
2024-03-02T12:10:33.000Z,115.312
2024-03-02T12:11:49.000Z,88.056
2024-03-02T12:13:05.000Z,62.199
2024-03-02T12:14:20.000Z,58.005
2024-03-02T12:15:35.000Z,56.608
2024-03-02T12:16:51.000Z,64.295
2024-03-02T12:18:07.000Z,77.574
2024-03-02T12:19:23.000Z,75.477
2024-03-02T12:20:39.000Z,98.539
2024-03-02T12:21:55.000Z,111.119
2024-03-02T12:23:10.000Z,127.193
2024-03-02T12:24:25.000Z,103.431
2024-03-02T12:25:40.000Z,93.647
2024-03-02T12:26:56.000Z,122.999
2024-03-02T12:28:13.000Z,119.505
2024-03-02T12:29:29.000Z,99.937
2024-03-02T12:30:45.000Z,104.829
2024-03-02T12:32:00.000Z,78.971
2024-03-02T12:33:15.000Z,60.102
2024-03-02T12:34:31.000Z,48.221
2024-03-02T12:35:46.000Z,42.631
2024-03-02T12:37:02.000Z,37.04
2024-03-02T12:38:18.000Z,51.716
2024-03-02T12:39:34.000Z,42.631
2024-03-02T12:40:50.000Z,38.437
2024-03-02T12:42:05.000Z,55.21
2024-03-02T12:43:21.000Z,36.341
2024-03-02T12:44:36.000Z,41.233
2024-03-02T12:45:52.000Z,18.869
2024-03-02T12:47:08.000Z,17.472
2024-03-02T12:48:25.000Z,21.665
2024-03-02T12:49:41.000Z,13.278
2024-03-02T12:50:56.000Z,25.148
2024-03-02T12:52:11.000Z,19.027
2024-03-02T12:53:26.000Z,15.375
2024-03-02T12:54:41.000Z,21.043
2024-03-02T12:55:57.000Z,11.881
2024-03-02T12:57:14.000Z,16.114
2024-03-02T12:58:30.000Z,17.707
2024-03-02T12:59:45.000Z,25.171
2024-03-02T13:01:00.000Z,21.731
2024-03-02T13:02:16.000Z,11.881
2024-03-02T13:03:32.000Z,17.135
2024-03-02T13:04:47.000Z,18.071
2024-03-02T13:06:03.000Z,22.792
2024-03-02T13:07:19.000Z,9.085
2024-03-02T13:08:34.000Z,47.523
2024-03-02T13:09:50.000Z,32.747
2024-03-02T13:11:05.000Z,17.902
2024-03-02T13:12:20.000Z,20.466
2024-03-02T13:13:36.000Z,18.397
2024-03-02T13:14:52.000Z,22.863
2024-03-02T13:16:08.000Z,22.556
2024-03-02T13:17:24.000Z,24.757
2024-03-02T13:18:39.000Z,19.5
2024-03-02T13:19:55.000Z,20.317
2024-03-02T13:21:10.000Z,28.767
2024-03-02T13:22:25.000Z,16.773
2024-03-02T13:23:42.000Z,23.062
2024-03-02T13:24:58.000Z,23.761
2024-03-02T13:26:14.000Z,20.267
2024-03-02T13:27:29.000Z,30.75
2024-03-02T13:28:45.000Z,22.364
2024-03-02T13:30:00.000Z,26.557
2024-03-02T13:31:15.000Z,25.159
2024-03-02T13:32:31.000Z,21.665
2024-03-02T13:33:47.000Z,29.352
2024-03-02T13:35:04.000Z,35.642
2024-03-02T13:36:19.000Z,32.846
2024-03-02T13:37:35.000Z,29.352
2024-03-02T13:38:50.000Z,41.932
2024-03-02T13:40:05.000Z,33.545
2024-03-02T13:41:21.000Z,38.437
2024-03-02T13:42:38.000Z,27.256
2024-03-02T13:43:54.000Z,20.966
2024-03-02T13:45:10.000Z,15.375
2024-03-02T13:46:25.000Z,19.085
2024-03-02T13:47:40.000Z,20.197
2024-03-02T13:48:56.000Z,19.973
2024-03-02T13:50:11.000Z,26.764
2024-03-02T13:51:27.000Z,21.937
2024-03-02T13:52:44.000Z,28.613
2024-03-02T13:53:59.000Z,25.664
2024-03-02T13:55:15.000Z,22.884
2024-03-02T13:56:30.000Z,32.265
2024-03-02T13:57:45.000Z,22.021
2024-03-02T13:59:00.000Z,17.763
2024-03-02T14:00:16.000Z,19.232
2024-03-02T14:01:33.000Z,29.39
2024-03-02T14:02:49.000Z,19.027
2024-03-02T14:04:05.000Z,30.701
2024-03-02T14:05:20.000Z,23.245
2024-03-02T14:06:35.000Z,46.96
2024-03-02T14:07:51.000Z,23.182
2024-03-02T14:09:06.000Z,32.951
2024-03-02T14:10:23.000Z,22.01
2024-03-02T14:11:39.000Z,20.357
2024-03-02T14:12:54.000Z,18.17
2024-03-02T14:14:09.000Z,16.074
2024-03-02T14:15:25.000Z,20.267
2024-03-02T14:16:40.000Z,20.267
2024-03-02T14:17:56.000Z,25.159
2024-03-02T14:19:13.000Z,27.954
2024-03-02T14:20:29.000Z,58.005
2024-03-02T14:21:45.000Z,47.523
2024-03-02T14:23:00.000Z,43.329
2024-03-02T14:24:15.000Z,35.642
2024-03-02T14:25:31.000Z,23.062
2024-03-02T14:26:46.000Z,25.159
2024-03-02T14:28:03.000Z,23.062
2024-03-02T14:29:20.000Z,14.676
2024-03-02T14:30:36.000Z,31.674
2024-03-02T14:31:51.000Z,36.561
2024-03-02T14:33:06.000Z,25.794
2024-03-02T14:34:21.000Z,22.642
2024-03-02T14:35:37.000Z,26.857
2024-03-02T14:36:53.000Z,10.483
2024-03-02T14:38:11.000Z,23.824
2024-03-02T14:39:26.000Z,16.275
2024-03-02T14:40:42.000Z,12.579
2024-03-02T14:41:57.000Z,16.773
2024-03-02T14:43:12.000Z,13.977
2024-03-02T14:44:28.000Z,17.472
2024-03-02T14:45:43.000Z,8.386
2024-03-02T14:47:00.000Z,9.784
2024-03-02T14:48:17.000Z,12.579
2024-03-02T14:49:33.000Z,13.977
2024-03-02T14:50:48.000Z,59.542
2024-03-02T14:52:03.000Z,17.285
2024-03-02T14:53:18.000Z,23.321
2024-03-02T14:54:34.000Z,42.966
2024-03-02T14:55:49.000Z,23.309
2024-03-02T14:57:05.000Z,20.204
2024-03-02T14:58:22.000Z,17.414
2024-03-02T14:59:38.000Z,20.204
2024-03-02T15:00:53.000Z,34.308
2024-03-02T15:02:08.000Z,20.204
2024-03-02T15:03:24.000Z,25.662
2024-03-02T15:04:39.000Z,19.715
2024-03-02T15:05:56.000Z,19.472
2024-03-02T15:07:12.000Z,21.628
2024-03-02T15:08:28.000Z,40.789
2024-03-02T15:09:44.000Z,19.027
2024-03-02T15:10:59.000Z,24.411
2024-03-02T15:12:15.000Z,35.816
2024-03-02T15:13:30.000Z,30.264
2024-03-02T15:14:47.000Z,19.379
2024-03-02T15:16:03.000Z,31.273
2024-03-02T15:17:19.000Z,20.067
2024-03-02T15:18:34.000Z,24.411
2024-03-02T15:19:50.000Z,24.981
2024-03-02T15:21:05.000Z,19.472
2024-03-02T15:22:21.000Z,31.718
2024-03-02T15:23:36.000Z,18.275
2024-03-02T15:24:53.000Z,28.518
2024-03-02T15:26:09.000Z,23.171
2024-03-02T15:27:25.000Z,20.204
2024-03-02T15:28:40.000Z,22.209
2024-03-02T15:29:55.000Z,16.672
2024-03-02T15:31:10.000Z,27.229
2024-03-02T15:32:26.000Z,25.664
2024-03-02T15:33:43.000Z,29.302
2024-03-02T15:34:59.000Z,22.269
2024-03-02T15:36:15.000Z,25.94
2024-03-02T15:37:30.000Z,28.821
2024-03-02T15:38:45.000Z,31.25
2024-03-02T15:40:00.000Z,26.513
2024-03-02T15:41:16.000Z,21.661
2024-03-02T15:42:32.000Z,20.204
2024-03-02T15:43:48.000Z,26.706
2024-03-02T15:45:05.000Z,17.546
2024-03-02T15:46:20.000Z,30.092